Time;durP1;ratioP1;P1;durP2;ratioP2;P2;SDS_P1;SDS_P2;PMS_P1;PMS_P2;Temp;Humidity;BMP_temperature;BMP_pressure;BME280_temperature;BME280_humidity;BME280_pressure;Samples;Min_cycle;Max_cycle;Signal;HPM_P1;HPM_P2
2022/03/31 00:00:20;;;;;;;11.75;6.53;;;;;;;5.04;71.68;100147.63;5000389;28;20048;-85
2022/03/31 00:02:45;;;;;;;13.35;6.15;;;;;;;5.04;71.61;100145.06;5006656;28;20034;-85
2022/03/31 00:05:11;;;;;;;11.43;6.68;;;;;;;5.03;72.58;100148.50;4994187;28;20023;-85
2022/03/31 00:07:49;;;;;;;12.15;6.75;;;;;;;5.04;71.87;100151.06;4995487;28;20126;-85
2022/03/31 00:10:19;;;;;;;12.50;6.47;;;;;;;5.05;72.17;100152.72;5004556;28;20030;-85
2022/03/31 00:12:44;;;;;;;13.63;7.13;;;;;;;5.08;71.90;100141.56;5006399;28;20026;-85
2022/03/31 00:15:10;;;;;;;10.75;6.30;;;;;;;5.11;72.16;100149.25;5000467;28;20054;-85
2022/03/31 00:17:35;;;;;;;13.07;6.22;;;;;;;5.13;71.78;100145.78;4994800;28;20030;-85
2022/03/31 00:20:01;;;;;;;13.70;6.82;;;;;;;5.13;71.93;100150.06;5001076;28;20037;-85
2022/03/31 00:22:29;;;;;;;11.38;5.85;;;;;;;5.12;72.26;100140.66;4998194;28;20009;-85
2022/03/31 00:24:55;;;;;;;12.65;6.15;;;;;;;5.09;71.90;100133.00;5004954;28;20037;-85
2022/03/31 00:27:20;;;;;;;13.65;6.50;;;;;;;5.09;72.50;100133.84;4998005;28;20031;-85
2022/03/31 00:29:45;;;;;;;13.10;6.40;;;;;;;5.08;72.46;100137.28;5006242;28;20053;-85
2022/03/31 00:32:11;;;;;;;11.10;6.30;;;;;;;5.07;72.13;100134.72;4999658;28;20022;-85
2022/03/31 00:34:36;;;;;;;12.88;6.82;;;;;;;5.06;72.65;100133.03;5007424;28;20049;-85
2022/03/31 00:37:02;;;;;;;11.40;6.63;;;;;;;5.02;72.76;100123.69;4997489;28;20046;-85
2022/03/31 00:39:31;;;;;;;12.73;6.72;;;;;;;5.01;72.57;100134.81;4999202;28;20409;-85
2022/03/31 00:41:59;;;;;;;12.55;6.60;;;;;;;5.02;73.02;100133.94;4995250;28;20018;-85
2022/03/31 00:44:25;;;;;;;12.07;6.20;;;;;;;5.01;73.54;100134.81;5003232;28;20394;-85
2022/03/31 00:46:52;;;;;;;12.30;7.03;;;;;;;4.98;73.40;100125.41;4997335;28;20037;-85
2022/03/31 00:49:19;;;;;;;13.90;7.03;;;;;;;4.94;73.21;100126.34;5001115;28;20036;-85
2022/03/31 00:51:46;;;;;;;13.65;7.47;;;;;;;4.92;73.15;100132.34;4993315;28;20053;-85
2022/03/31 00:54:12;;;;;;;13.88;7.03;;;;;;;4.91;73.71;100128.97;4995841;28;20040;-85
2022/03/31 00:56:38;;;;;;;13.48;6.88;;;;;;;4.91;74.32;100130.69;4996208;28;20030;-85
2022/03/31 00:59:08;;;;;;;13.93;7.43;;;;;;;4.92;74.44;100132.34;5001932;28;20116;-85
2022/03/31 01:01:38;;;;;;;14.68;7.90;;;;;;;4.93;74.37;100134.91;5002249;28;20045;-85
2022/03/31 01:04:04;;;;;;;15.77;8.40;;;;;;;4.95;74.01;100129.75;5019771;28;20030;-85
2022/03/31 01:06:30;;;;;;;15.38;8.68;;;;;;;4.95;74.08;100135.75;4997931;28;20026;-85
2022/03/31 01:08:56;;;;;;;16.20;8.15;;;;;;;4.97;74.05;100128.88;5002211;28;20022;-85
2022/03/31 01:11:21;;;;;;;16.50;8.40;;;;;;;4.95;73.82;100125.47;4996776;28;20044;-85
2022/03/31 01:13:48;;;;;;;15.02;7.72;;;;;;;4.97;74.31;100123.75;5002601;28;20026;-85
2022/03/31 01:16:14;;;;;;;15.07;7.80;;;;;;;4.95;74.32;100125.47;4997597;28;20034;-85
2022/03/31 01:18:40;;;;;;;12.80;6.60;;;;;;;4.94;75.05;100117.78;5010116;28;20156;-85
2022/03/31 01:21:05;;;;;;;16.40;7.88;;;;;;;4.91;74.94;100123.81;5009796;28;20022;-85
2022/03/31 01:23:31;;;;;;;15.25;7.13;;;;;;;4.88;74.94;100117.88;5003753;28;20400;-85
2022/03/31 01:25:56;;;;;;;14.35;7.15;;;;;;;4.81;75.64;100116.22;5000302;28;20033;-85
2022/03/31 01:28:22;;;;;;;15.02;8.20;;;;;;;4.83;76.73;100120.50;4988039;28;20033;-85
2022/03/31 01:30:48;;;;;;;16.17;8.25;;;;;;;4.81;76.44;100119.66;5006008;28;20117;-85
2022/03/31 01:33:14;;;;;;;19.50;8.18;;;;;;;4.81;76.15;100113.66;5003248;28;20381;-85
2022/03/31 01:35:40;;;;;;;15.35;7.35;;;;;;;4.81;77.30;100122.22;5004374;28;20160;-85
2022/03/31 01:38:06;;;;;;;17.30;7.80;;;;;;;4.82;78.13;100115.38;5004402;28;20478;-85
2022/03/31 01:40:32;;;;;;;17.27;7.50;;;;;;;4.81;77.34;100118.81;5024043;28;20052;-85
2022/03/31 01:42:57;;;;;;;17.48;8.32;;;;;;;4.73;77.54;100114.59;5003640;28;20030;-85
2022/03/31 01:45:23;;;;;;;17.27;8.20;;;;;;;4.64;78.46;100114.69;5002629;28;20113;-85
2022/03/31 01:47:49;;;;;;;17.75;8.23;;;;;;;4.53;79.40;100115.69;5004262;28;20492;-85
2022/03/31 01:50:14;;;;;;;17.98;8.75;;;;;;;4.44;79.83;100103.81;4999461;28;20026;-85
2022/03/31 01:52:41;;;;;;;18.85;8.60;;;;;;;4.41;81.28;100106.44;5004403;28;20117;-85
2022/03/31 01:55:07;;;;;;;18.17;8.50;;;;;;;4.33;81.32;100100.53;4997297;28;20395;-84
2022/03/31 01:57:33;;;;;;;17.85;8.48;;;;;;;4.24;82.38;100108.28;5005283;28;20072;-85
2022/03/31 02:00:02;;;;;;;19.90;8.45;;;;;;;4.17;83.29;100114.34;5000798;28;20093;-85
2022/03/31 02:02:29;;;;;;;18.05;9.02;;;;;;;4.11;84.24;100104.16;5004600;28;20021;-85
2022/03/31 02:04:54;;;;;;;19.27;9.10;;;;;;;4.06;84.21;100111.03;4994775;28;20022;-85
2022/03/31 02:07:20;;;;;;;19.48;9.07;;;;;;;4.01;84.31;100100.84;5003455;28;20033;-85
2022/03/31 02:09:45;;;;;;;17.67;8.82;;;;;;;3.97;84.91;100092.31;4995862;28;20475;-85
2022/03/31 02:12:11;;;;;;;18.52;9.15;;;;;;;3.95;85.41;100094.06;4998824;28;20029;-85
2022/03/31 02:14:41;;;;;;;19.35;9.27;;;;;;;3.96;85.90;100090.59;4995484;28;20030;-85
2022/03/31 02:17:07;;;;;;;21.90;9.20;;;;;;;3.97;85.83;100088.88;5006856;28;20478;-85
2022/03/31 02:19:34;;;;;;;21.77;9.60;;;;;;;3.97;85.39;100092.31;5001813;28;20026;-84
2022/03/31 02:21:59;;;;;;;18.42;8.73;;;;;;;3.95;85.34;100086.38;4999760;28;20018;-85
2022/03/31 02:24:24;;;;;;;20.45;8.85;;;;;;;3.95;86.76;100086.38;4994724;28;20049;-84
2022/03/31 02:26:51;;;;;;;19.00;8.93;;;;;;;3.93;87.01;100072.69;4995722;28;20496;-85
2022/03/31 02:29:18;;;;;;;18.38;8.65;;;;;;;3.93;86.22;100067.56;5003902;28;20034;-84
2022/03/31 02:31:46;;;;;;;20.75;9.07;;;;;;;3.92;86.63;100063.31;5000819;28;20026;-85
2022/03/31 02:34:12;;;;;;;19.02;8.75;;;;;;;3.88;86.81;100069.34;4993852;28;20490;-85
2022/03/31 02:36:37;;;;;;;21.50;9.45;;;;;;;3.88;87.39;100068.50;4993218;28;20034;-85
2022/03/31 02:39:03;;;;;;;20.98;8.77;;;;;;;3.91;87.48;100068.44;5001287;28;20639;-85
2022/03/31 02:41:29;;;;;;;18.63;9.27;;;;;;;3.93;87.90;100072.69;4991010;28;20033;-84
2022/03/31 02:43:54;;;;;;;19.55;9.70;;;;;;;3.98;88.02;100068.38;5003535;28;20045;-85
2022/03/31 02:46:19;;;;;;;19.52;8.93;;;;;;;4.00;87.58;100060.69;5001920;28;20025;-85
2022/03/31 02:48:45;;;;;;;20.88;8.93;;;;;;;4.01;88.31;100066.66;4996071;28;20046;-85
2022/03/31 02:51:10;;;;;;;18.90;8.55;;;;;;;3.99;88.58;100061.53;4994114;28;20054;-84
2022/03/31 02:56:19;;;;;;;19.42;9.55;;;;;;;4.00;88.68;100070.06;4999910;28;20060;-85
2022/03/31 02:58:44;;;;;;;18.00;9.13;;;;;;;3.95;88.07;100071.00;5001022;28;20550;-85
2022/03/31 03:01:10;;;;;;;19.38;9.48;;;;;;;3.93;87.73;100067.56;5000476;28;20068;-85
2022/03/31 03:03:36;;;;;;;18.50;9.20;;;;;;;3.90;87.85;100069.31;5000564;28;20030;-85
2022/03/31 03:06:02;;;;;;;18.25;9.73;;;;;;;3.88;88.40;100068.50;5001573;28;20125;-85
2022/03/31 03:08:28;;;;;;;19.60;9.13;;;;;;;3.90;88.84;100064.16;5003147;28;20499;-85
2022/03/31 03:10:54;;;;;;;20.50;10.23;;;;;;;3.91;89.39;100069.28;4995424;28;20064;-85
2022/03/31 03:13:19;;;;;;;17.02;8.90;;;;;;;3.90;89.18;100059.91;5003360;28;20099;-85
2022/03/31 03:15:46;;;;;;;18.58;9.68;;;;;;;3.90;89.16;100051.34;5006695;28;20033;-85
2022/03/31 03:18:11;;;;;;;18.50;9.38;;;;;;;3.84;88.67;100044.59;5002953;28;20033;-85
2022/03/31 03:20:36;;;;;;;20.70;9.65;;;;;;;3.75;88.43;100038.72;4993929;28;20022;-85
2022/03/31 03:23:02;;;;;;;17.80;9.55;;;;;;;3.66;88.92;100028.53;4996566;28;20110;-84
2022/03/31 03:25:27;;;;;;;17.17;9.02;;;;;;;3.56;89.25;100027.75;5002693;28;20034;-85
2022/03/31 03:27:52;;;;;;;16.80;8.98;;;;;;;3.47;90.04;100028.69;4999601;28;20029;-84
2022/03/31 03:30:20;;;;;;;16.75;8.55;;;;;;;3.48;90.52;100032.09;4995218;28;20034;-84
2022/03/31 03:32:46;;;;;;;17.33;8.65;;;;;;;3.39;90.63;100020.22;5000920;28;20033;-84
2022/03/31 03:35:13;;;;;;;17.52;9.40;;;;;;;3.28;90.50;100018.56;4996226;28;20038;-84
2022/03/31 03:37:40;;;;;;;16.02;7.82;;;;;;;3.29;90.28;100023.69;4994545;28;20030;-84
2022/03/31 03:40:07;;;;;;;17.55;9.38;;;;;;;3.28;91.04;100024.53;5001512;28;20030;-84
2022/03/31 03:42:33;;;;;;;17.88;8.48;;;;;;;3.28;90.77;100028.81;4996335;28;20041;-85
2022/03/31 03:44:59;;;;;;;16.90;8.10;;;;;;;3.29;90.78;100031.38;4994154;28;20030;-85
2022/03/31 03:47:25;;;;;;;15.52;8.15;;;;;;;3.28;91.24;100026.25;4993421;28;20065;-84
2022/03/31 03:49:50;;;;;;;17.15;8.40;;;;;;;3.27;90.97;100022.03;4993415;28;20109;-85
2022/03/31 03:52:17;;;;;;;14.45;8.13;;;;;;;3.24;90.84;100028.00;5000693;28;20046;-85
2022/03/31 03:54:42;;;;;;;14.80;7.78;;;;;;;3.24;90.60;100038.25;5000305;28;20034;-84
2022/03/31 03:57:07;;;;;;;16.00;7.90;;;;;;;3.24;90.43;100033.13;4990716;28;20053;-85
2022/03/31 03:59:33;;;;;;;12.73;6.88;;;;;;;3.27;90.09;100030.56;5001626;28;20028;-84
2022/03/31 04:01:59;;;;;;;13.43;7.22;;;;;;;3.32;90.77;100040.75;5007955;28;20101;-84
2022/03/31 04:04:25;;;;;;;11.98;6.40;;;;;;;3.31;89.68;100033.94;4996940;28;20037;-85
2022/03/31 04:06:51;;;;;;;11.73;6.40;;;;;;;3.32;90.36;100035.63;5001041;28;20109;-85
2022/03/31 04:09:17;;;;;;;13.05;6.50;;;;;;;3.28;89.88;100036.50;5007659;28;20028;-84
2022/03/31 04:11:42;;;;;;;10.45;6.00;;;;;;;3.22;89.59;100039.09;4999216;28;20037;-84
2022/03/31 04:14:07;;;;;;;11.23;6.00;;;;;;;3.16;89.90;100037.44;5003851;28;20541;-84
2022/03/31 04:16:33;;;;;;;10.05;6.10;;;;;;;3.11;89.88;100042.59;4994622;28;20061;-85
2022/03/31 04:18:59;;;;;;;10.90;6.00;;;;;;;3.09;90.01;100035.78;4997473;28;20024;-86
2022/03/31 04:21:24;;;;;;;10.55;6.75;;;;;;;3.08;90.05;100041.75;5010280;28;20387;-86
2022/03/31 04:23:49;;;;;;;9.05;5.38;;;;;;;3.01;89.95;100038.38;5005301;28;20041;-86
2022/03/31 04:26:15;;;;;;;8.60;5.25;;;;;;;3.00;90.31;100039.25;4995851;28;20388;-86
2022/03/31 04:28:40;;;;;;;9.60;5.28;;;;;;;2.96;89.98;100039.28;4996576;28;20027;-86
2022/03/31 04:31:05;;;;;;;7.63;5.03;;;;;;;2.96;90.25;100055.50;5007303;28;20042;-86
2022/03/31 04:33:30;;;;;;;9.02;4.95;;;;;;;2.89;89.79;100040.19;5006377;28;20030;-86
2022/03/31 04:35:56;;;;;;;9.30;4.70;;;;;;;2.82;90.65;100044.47;5009812;28;20026;-86
2022/03/31 04:38:21;;;;;;;7.65;4.70;;;;;;;2.77;90.75;100041.09;5002550;28;20149;-86
2022/03/31 04:40:46;;;;;;;6.93;4.70;;;;;;;2.70;90.55;100041.97;5010003;28;20041;-85
2022/03/31 04:43:13;;;;;;;7.28;4.35;;;;;;;2.65;90.93;100048.84;5001112;28;20065;-86
2022/03/31 04:45:38;;;;;;;8.73;4.90;;;;;;;2.60;91.15;100045.44;5001290;28;20030;-86
2022/03/31 04:48:04;;;;;;;7.07;4.35;;;;;;;2.54;91.80;100053.97;4989575;28;20065;-86
2022/03/31 04:50:29;;;;;;;9.70;4.63;;;;;;;2.47;91.77;100054.84;4988860;28;20035;-84
2022/03/31 04:52:54;;;;;;;7.38;4.20;;;;;;;2.40;92.06;100050.63;4984170;28;20022;-84
2022/03/31 04:55:20;;;;;;;6.90;4.15;;;;;;;2.36;93.05;100057.47;4992697;28;20490;-85
2022/03/31 04:57:46;;;;;;;7.78;4.45;;;;;;;2.30;92.99;100057.50;4993373;28;20089;-85
2022/03/31 05:00:12;;;;;;;7.70;4.32;;;;;;;2.26;93.28;100055.78;4992521;28;20117;-84
2022/03/31 05:02:37;;;;;;;6.88;4.38;;;;;;;2.21;93.30;100060.06;4992744;28;20085;-85
2022/03/31 05:05:02;;;;;;;8.18;4.30;;;;;;;2.20;93.48;100063.47;4992799;28;20081;-85
2022/03/31 05:07:28;;;;;;;7.32;4.47;;;;;;;2.14;93.72;100055.81;4993077;28;20061;-84
2022/03/31 05:09:53;;;;;;;7.67;4.13;;;;;;;2.16;93.71;100053.28;4992154;28;20081;-84
2022/03/31 05:12:19;;;;;;;7.50;4.40;;;;;;;2.16;94.26;100051.56;4992543;28;20327;-85
2022/03/31 05:14:44;;;;;;;8.20;4.43;;;;;;;2.19;93.83;100051.53;5024051;28;20062;-84
2022/03/31 05:17:10;;;;;;;6.72;4.15;;;;;;;2.21;93.40;100062.63;4992871;28;20110;-85
2022/03/31 05:19:35;;;;;;;8.10;4.40;;;;;;;2.21;93.66;100062.63;4992011;28;20112;-84
2022/03/31 05:22:01;;;;;;;8.00;3.78;;;;;;;2.18;93.53;100056.69;4992621;28;20391;-85
2022/03/31 05:24:26;;;;;;;9.32;4.30;;;;;;;2.17;92.81;100054.97;4986473;28;20031;-85
2022/03/31 05:26:52;;;;;;;8.63;4.55;;;;;;;2.17;93.22;100054.97;4982454;28;20030;-84
2022/03/31 05:29:21;;;;;;;7.75;4.60;;;;;;;2.16;93.25;100061.78;4991992;28;20514;-85
2022/03/31 05:31:47;;;;;;;7.18;4.13;;;;;;;2.18;93.43;100060.09;4992400;28;20038;-84
2022/03/31 05:34:13;;;;;;;8.07;4.57;;;;;;;2.23;93.48;100058.38;4992060;28;20044;-84
2022/03/31 05:36:38;;;;;;;6.30;3.83;;;;;;;2.22;93.17;100051.53;4992694;28;20030;-84
2022/03/31 05:39:04;;;;;;;6.90;3.85;;;;;;;2.19;92.67;100055.78;4992212;28;20234;-84
2022/03/31 05:41:30;;;;;;;5.70;3.40;;;;;;;2.19;93.07;100060.91;4992632;28;20062;-84
2022/03/31 05:43:56;;;;;;;6.18;3.45;;;;;;;2.18;93.55;100072.03;4988950;28;20030;-84
2022/03/31 05:46:22;;;;;;;5.90;3.30;;;;;;;2.22;93.24;100078.81;4992120;28;20045;-84
2022/03/31 05:48:48;;;;;;;5.07;3.30;;;;;;;2.18;92.76;100069.47;4991614;28;20085;-84
2022/03/31 05:51:13;;;;;;;5.20;3.15;;;;;;;2.16;92.75;100068.59;4991919;28;20058;-84
2022/03/31 05:53:39;;;;;;;4.57;3.00;;;;;;;2.13;92.60;100069.44;4999385;28;20030;-84
2022/03/31 05:56:04;;;;;;;4.95;3.17;;;;;;;2.06;92.32;100062.66;4992028;28;20456;-84
2022/03/31 05:58:29;;;;;;;5.55;3.22;;;;;;;1.98;92.57;100057.53;4991902;28;20782;-84
2022/03/31 06:00:55;;;;;;;5.93;3.10;;;;;;;1.84;92.38;100064.38;4992273;28;20468;-83
2022/03/31 06:03:23;;;;;;;7.00;3.40;;;;;;;1.71;92.23;100072.91;4998578;28;20303;-83
2022/03/31 06:05:49;;;;;;;7.00;2.88;;;;;;;1.59;92.75;100083.97;4991746;28;20034;-84
2022/03/31 06:08:15;;;;;;;5.00;2.95;;;;;;;1.41;92.85;100076.31;4985385;28;20030;-84
2022/03/31 06:10:41;;;;;;;5.45;3.30;;;;;;;1.22;93.24;100066.09;4991351;28;20030;-84
2022/03/31 06:13:06;;;;;;;5.10;2.90;;;;;;;0.94;94.06;100070.28;4992807;28;20076;-85
2022/03/31 06:15:34;;;;;;;6.25;3.20;;;;;;;0.74;94.54;100067.69;5023250;28;20061;-85
2022/03/31 06:18:00;;;;;;;6.20;3.42;;;;;;;0.65;95.97;100067.63;4984886;28;20022;-85
2022/03/31 06:20:27;;;;;;;6.07;3.55;;;;;;;0.63;96.45;100067.63;4990681;28;20328;-86
2022/03/31 06:22:53;;;;;;;5.63;2.90;;;;;;;0.64;96.58;100068.47;4992705;28;20021;-86
2022/03/31 06:25:20;;;;;;;5.50;2.90;;;;;;;0.63;97.25;100069.31;5021453;28;20038;-87
2022/03/31 06:27:47;;;;;;;5.38;3.08;;;;;;;0.64;97.37;100068.47;4990299;28;20106;-86
2022/03/31 06:30:13;;;;;;;6.78;3.40;;;;;;;0.65;97.58;100065.09;4988448;28;20037;-86
2022/03/31 06:32:38;;;;;;;5.50;3.08;;;;;;;0.69;97.52;100070.19;4985240;28;20114;-86
2022/03/31 06:35:04;;;;;;;5.65;2.80;;;;;;;0.68;97.50;100058.28;4983879;28;20121;-86
2022/03/31 06:37:29;;;;;;;6.78;2.90;;;;;;;0.72;97.98;100072.75;4991010;28;20033;-86
2022/03/31 06:39:55;;;;;;;5.22;2.83;;;;;;;0.72;97.69;100079.56;4986408;28;20464;-86
2022/03/31 06:42:20;;;;;;;4.75;2.85;;;;;;;0.71;97.41;100068.50;4991007;28;20027;-86
2022/03/31 06:44:45;;;;;;;5.20;2.72;;;;;;;0.72;97.74;100066.81;4990895;28;20479;-86
2022/03/31 06:47:11;;;;;;;5.95;3.30;;;;;;;0.73;98.65;100063.41;4991109;28;20026;-87
2022/03/31 06:49:36;;;;;;;5.72;3.20;;;;;;;0.82;98.88;100070.25;4990551;28;20036;-86
2022/03/31 06:52:02;;;;;;;6.05;3.30;;;;;;;0.79;99.32;100071.94;4989862;28;20488;-85
2022/03/31 06:54:27;;;;;;;7.18;3.58;;;;;;;0.84;99.01;100076.19;4997816;28;20068;-85
2022/03/31 06:56:53;;;;;;;6.18;3.30;;;;;;;0.84;99.38;100076.19;4990341;28;20058;-85
2022/03/31 06:59:20;;;;;;;6.10;3.53;;;;;;;0.83;99.55;100077.88;4990560;28;20109;-86
2022/03/31 07:01:46;;;;;;;6.25;3.47;;;;;;;0.84;99.36;100082.16;4990812;28;20026;-86
2022/03/31 07:04:11;;;;;;;6.80;3.90;;;;;;;0.88;99.87;100075.38;4993479;28;20377;-86
2022/03/31 07:06:36;;;;;;;7.30;3.75;;;;;;;0.89;99.71;100074.53;4992238;28;20113;-86
2022/03/31 07:09:03;;;;;;;8.35;4.20;;;;;;;0.94;99.79;100075.38;4991796;28;20381;-85
2022/03/31 07:11:28;;;;;;;8.27;4.68;;;;;;;1.01;100.00;100066.91;4990779;28;20157;-86
2022/03/31 07:13:53;;;;;;;8.00;4.47;;;;;;;1.08;100.00;100066.06;4990164;28;20508;-86
2022/03/31 07:16:19;;;;;;;7.47;3.60;;;;;;;1.10;100.00;100077.97;4988919;28;20068;-86
2022/03/31 07:18:44;;;;;;;6.70;3.80;;;;;;;1.10;100.00;100067.75;4988912;28;20432;-86
2022/03/31 07:21:10;;;;;;;7.07;4.00;;;;;;;1.12;99.70;100065.22;4990372;28;20451;-86
2022/03/31 07:23:35;;;;;;;7.63;4.40;;;;;;;1.14;99.89;100074.59;4994833;28;20054;-86
2022/03/31 07:26:00;;;;;;;5.90;3.70;;;;;;;1.10;99.56;100083.06;4989737;28;20026;-86
2022/03/31 07:28:26;;;;;;;7.80;4.20;;;;;;;1.15;99.88;100071.19;4991308;28;20022;-86
2022/03/31 07:30:52;;;;;;;7.60;4.13;;;;;;;1.18;100.00;100070.31;4990116;28;20030;-86
2022/03/31 07:33:19;;;;;;;7.22;4.40;;;;;;;1.18;100.00;100065.22;4990376;28;20026;-85
2022/03/31 07:35:47;;;;;;;7.18;4.38;;;;;;;1.20;99.98;100060.97;4990579;28;20037;-85
2022/03/31 07:38:13;;;;;;;7.93;4.40;;;;;;;1.22;100.00;100066.09;4990026;28;20029;-85
2022/03/31 07:40:40;;;;;;;7.75;4.35;;;;;;;1.22;100.00;100063.53;4990371;28;20026;-85
2022/03/31 07:43:06;;;;;;;7.88;4.68;;;;;;;1.24;99.99;100072.88;4988306;28;20026;-86
2022/03/31 07:45:36;;;;;;;8.05;4.20;;;;;;;1.23;100.00;100071.16;4989789;28;20022;-85
2022/03/31 07:48:05;;;;;;;9.85;5.22;;;;;;;1.24;100.00;100066.91;4989513;28;20531;-85
2022/03/31 07:50:31;;;;;;;7.90;4.53;;;;;;;1.29;100.00;100070.34;4988338;28;20387;-85
2022/03/31 07:52:57;;;;;;;8.32;4.53;;;;;;;1.38;100.00;100071.19;4989836;28;20030;-85
2022/03/31 07:55:23;;;;;;;7.85;4.78;;;;;;;1.40;100.00;100073.75;4988608;28;20030;-85
2022/03/31 07:57:49;;;;;;;8.35;4.97;;;;;;;1.48;100.00;100060.16;4989826;28;20030;-86
2022/03/31 08:00:16;;;;;;;8.68;5.03;;;;;;;1.54;100.00;100070.38;4986966;28;20037;-86
2022/03/31 08:02:45;;;;;;;7.60;4.65;;;;;;;1.57;100.00;100067.78;4988813;28;20112;-85
2022/03/31 08:05:11;;;;;;;8.50;4.97;;;;;;;1.58;100.00;100066.09;4986649;28;20026;-85
2022/03/31 08:07:38;;;;;;;7.93;4.38;;;;;;;1.63;100.00;100064.41;4983568;28;20119;-85
2022/03/31 08:10:05;;;;;;;7.13;4.43;;;;;;;1.66;100.00;100066.09;4989792;28;20030;-85
2022/03/31 08:12:31;;;;;;;8.18;4.90;;;;;;;1.71;100.00;100057.56;4988118;28;20395;-85
2022/03/31 08:14:56;;;;;;;6.75;4.15;;;;;;;1.76;100.00;100067.81;4988072;28;20034;-85
2022/03/31 08:17:23;;;;;;;7.43;4.28;;;;;;;1.79;100.00;100060.13;4989323;28;20034;-85
2022/03/31 08:19:48;;;;;;;6.63;3.85;;;;;;;1.84;100.00;100061.81;4987488;28;20288;-85
2022/03/31 08:22:15;;;;;;;6.82;4.35;;;;;;;1.87;100.00;100059.28;4988873;28;20026;-85
2022/03/31 08:24:40;;;;;;;7.32;4.47;;;;;;;1.95;100.00;100059.28;4987406;28;20084;-85
2022/03/31 08:27:05;;;;;;;6.18;4.05;;;;;;;2.01;100.00;100068.63;4983716;28;20659;-85
2022/03/31 08:29:31;;;;;;;7.68;4.25;;;;;;;2.00;100.00;100060.09;4981752;28;20319;-85
2022/03/31 08:31:57;;;;;;;6.25;4.03;;;;;;;1.99;100.00;100058.41;4988712;28;20022;-84
2022/03/31 08:34:23;;;;;;;6.97;4.35;;;;;;;1.99;100.00;100066.91;4981898;28;20038;-85
2022/03/31 08:36:48;;;;;;;6.65;3.97;;;;;;;2.00;100.00;100070.31;4984775;28;20061;-84
2022/03/31 08:39:13;;;;;;;7.90;4.40;;;;;;;2.04;100.00;100063.53;4985367;28;20030;-84
2022/03/31 08:41:39;;;;;;;6.72;3.95;;;;;;;2.07;100.00;100056.69;4983490;28;20369;-85
2022/03/31 08:44:05;;;;;;;6.88;4.38;;;;;;;2.16;100.00;100061.78;5014532;28;20418;-85
2022/03/31 08:46:34;;;;;;;6.95;4.10;;;;;;;2.24;100.00;100054.97;4991749;28;20488;-85
2022/03/31 08:49:00;;;;;;;7.80;4.18;;;;;;;2.27;100.00;100054.06;4984571;28;20511;-85
2022/03/31 08:51:27;;;;;;;6.90;4.03;;;;;;;2.34;100.00;100048.94;4990550;28;20038;-85
2022/03/31 08:53:52;;;;;;;8.50;4.90;;;;;;;2.44;100.00;100057.44;4987623;28;20660;-85
2022/03/31 08:56:17;;;;;;;8.65;4.68;;;;;;;2.47;100.00;100054.00;4982755;28;20109;-85
2022/03/31 08:58:44;;;;;;;7.18;4.68;;;;;;;2.49;99.95;100048.03;4987450;28;20043;-85
2022/03/31 09:01:14;;;;;;;8.00;4.60;;;;;;;2.51;99.80;100055.72;4987926;28;20019;-85
2022/03/31 09:03:40;;;;;;;7.97;4.88;;;;;;;2.58;99.73;100057.41;4986176;28;20081;-85
2022/03/31 09:06:07;;;;;;;7.35;4.45;;;;;;;2.69;100.00;100053.06;4990597;28;20376;-85
2022/03/31 09:08:33;;;;;;;7.25;4.60;;;;;;;2.70;98.62;100054.78;4987291;28;20023;-85
2022/03/31 09:11:00;;;;;;;7.72;4.40;;;;;;;2.77;99.07;100054.75;4995198;28;20029;-85
2022/03/31 09:13:25;;;;;;;7.35;4.60;;;;;;;2.84;99.14;100063.25;4993859;28;20034;-86
2022/03/31 09:15:50;;;;;;;7.97;4.50;;;;;;;2.85;98.49;100061.53;4988171;28;20071;-86
2022/03/31 09:18:19;;;;;;;7.83;4.93;;;;;;;2.89;98.81;100069.19;4985244;28;20333;-86
2022/03/31 09:20:44;;;;;;;8.20;4.95;;;;;;;2.94;99.77;100059.75;4998912;28;20030;-86
2022/03/31 09:23:18;;;;;;;7.57;4.90;;;;;;;3.00;98.56;100067.41;5004606;28;20033;-85
2022/03/31 09:25:44;;;;;;;7.93;4.95;;;;;;;3.14;98.96;100065.63;5005498;28;20031;-86
2022/03/31 09:28:15;;;;;;;7.72;4.82;;;;;;;3.24;98.30;100057.88;5002574;28;20124;-86
2022/03/31 09:30:59;;;;;;;6.90;4.72;;;;;;;3.34;97.19;100062.94;4996227;28;20030;-85
2022/03/31 09:33:31;;;;;;;6.57;4.45;;;;;;;3.29;95.38;100066.38;5003606;28;20022;-86
2022/03/31 09:36:18;;;;;;;7.05;4.60;;;;;;;3.33;97.16;100065.50;4995230;28;20022;-85
2022/03/31 09:38:52;;;;;;;7.55;4.90;;;;;;;3.44;97.12;100071.41;4999851;28;20459;-85
2022/03/31 09:41:20;;;;;;;6.93;4.40;;;;;;;3.35;94.00;100068.88;4994266;28;20180;-85
2022/03/31 09:43:47;;;;;;;6.35;4.65;;;;;;;3.23;94.21;100071.53;4993631;28;21250;-85
2022/03/31 09:46:24;;;;;;;7.38;4.80;;;;;;;3.21;95.86;100068.97;4997198;28;20023;-84
2022/03/31 09:48:51;;;;;;;7.35;4.80;;;;;;;3.28;96.64;100065.53;4995847;28;20065;-85
2022/03/31 09:51:17;;;;;;;7.35;4.88;;;;;;;3.39;97.02;100062.91;4997166;28;20032;-85
2022/03/31 09:53:42;;;;;;;6.88;4.65;;;;;;;3.45;96.48;100063.72;5028298;28;20348;-85
2022/03/31 09:56:08;;;;;;;7.35;4.50;;;;;;;3.52;96.05;100056.81;4991125;28;20105;-85
2022/03/31 09:58:38;;;;;;;6.85;4.18;;;;;;;3.52;94.85;100055.13;4991677;28;20084;-85
2022/03/31 10:01:04;;;;;;;6.65;4.22;;;;;;;3.53;94.49;100061.09;4989333;28;20389;-85
2022/03/31 10:03:30;;;;;;;5.93;4.07;;;;;;;3.57;94.49;100053.34;4987787;28;20052;-85
2022/03/31 10:05:57;;;;;;;7.95;4.63;;;;;;;3.69;95.59;100054.97;4991988;28;20411;-85
2022/03/31 10:08:23;;;;;;;7.32;4.65;;;;;;;3.79;95.21;100048.06;4990334;28;20034;-85
2022/03/31 10:10:49;;;;;;;6.90;4.38;;;;;;;3.88;94.72;100048.84;4990202;28;20033;-85
2022/03/31 10:13:20;;;;;;;7.28;4.90;;;;;;;3.95;94.24;100054.75;4991047;28;20124;-85
2022/03/31 10:15:46;;;;;;;6.28;4.30;;;;;;;3.95;93.50;100053.03;4988772;28;20038;-85
2022/03/31 10:18:15;;;;;;;6.45;4.32;;;;;;;4.00;94.88;100054.69;4987838;28;20030;-85
2022/03/31 10:20:54;;;;;;;7.15;4.57;;;;;;;4.03;92.14;100057.22;4985382;28;20031;-85
2022/03/31 10:26:03;;;;;;;7.75;5.05;;;;;;;4.07;94.73;100054.63;4991364;28;20112;-85
2022/03/31 10:28:28;;;;;;;8.13;5.30;;;;;;;4.06;92.81;100052.06;4990969;28;20487;-85
2022/03/31 10:30:59;;;;;;;6.88;4.72;;;;;;;4.00;93.67;100052.13;4991125;28;20037;-85
2022/03/31 10:33:38;;;;;;;8.52;5.07;;;;;;;4.06;94.01;100052.06;4991005;28;20030;-84
2022/03/31 10:36:12;;;;;;;9.00;4.72;;;;;;;4.11;94.50;100056.28;4986605;28;20058;-85
2022/03/31 10:38:38;;;;;;;7.47;4.57;;;;;;;4.00;92.67;100044.44;4991349;28;20598;-85
2022/03/31 10:41:08;;;;;;;7.55;4.90;;;;;;;3.93;94.16;100053.91;4987388;28;20022;-85
2022/03/31 10:43:44;;;;;;;7.25;4.90;;;;;;;3.87;93.85;100049.69;4985325;28;20053;-85
2022/03/31 10:46:20;;;;;;;7.07;4.68;;;;;;;3.86;94.63;100049.69;4985952;28;20113;-85
2022/03/31 10:48:51;;;;;;;7.40;4.80;;;;;;;3.87;93.40;100042.00;4984077;28;20050;-85
2022/03/31 10:51:17;;;;;;;7.32;4.47;;;;;;;3.93;95.13;100052.19;4981386;28;20037;-85
2022/03/31 10:53:48;;;;;;;7.03;4.93;;;;;;;3.88;93.62;100047.97;4992391;28;20050;-85
2022/03/31 10:56:19;;;;;;;7.03;4.88;;;;;;;3.85;93.66;100043.72;4990721;28;20034;-85
2022/03/31 10:58:45;;;;;;;7.97;4.97;;;;;;;3.88;94.79;100046.28;4994978;28;20033;-85
2022/03/31 11:01:11;;;;;;;7.95;5.35;;;;;;;3.91;94.85;100050.50;4998797;28;20495;-85
2022/03/31 11:03:37;;;;;;;8.38;5.50;;;;;;;3.92;94.95;100041.94;4991515;28;20033;-85
2022/03/31 11:06:08;;;;;;;7.85;5.22;;;;;;;3.93;92.91;100035.97;4997637;28;20038;-85
2022/03/31 11:08:46;;;;;;;9.00;4.97;;;;;;;3.94;92.83;100042.78;5004632;28;20036;-85
2022/03/31 11:11:20;;;;;;;8.07;5.35;;;;;;;4.04;93.96;100043.53;5001110;28;20034;-85
2022/03/31 11:13:45;;;;;;;6.95;4.88;;;;;;;4.16;92.96;100040.88;4990960;28;20166;-85
2022/03/31 11:16:11;;;;;;;7.72;5.13;;;;;;;4.25;93.09;100041.59;4995571;28;20112;-85
2022/03/31 11:18:36;;;;;;;8.20;5.25;;;;;;;4.31;92.49;100038.09;4990824;28;20038;-85
2022/03/31 11:21:03;;;;;;;8.95;5.82;;;;;;;4.41;93.36;100041.44;4994213;28;20031;-85
2022/03/31 11:23:30;;;;;;;8.15;5.32;;;;;;;4.46;93.31;100040.50;5002933;28;20021;-85
2022/03/31 11:25:57;;;;;;;7.60;5.13;;;;;;;4.44;93.02;100034.53;4999882;28;20447;-85
2022/03/31 11:28:27;;;;;;;6.93;5.05;;;;;;;4.31;90.96;100032.97;4990582;28;20041;-85
2022/03/31 11:30:54;;;;;;;6.93;4.75;;;;;;;4.20;91.89;100029.69;4990053;28;20034;-85